Terminal Aerodrome Forecast
Issued by NWS Melbourne, FL

Home | Current Version | Previous Version | Text Only | Print | Product List | Glossary On
Versions: 1 2 3 4 5 6 7 8 9 10 11 12 13 14 15 16 17 18 19 20 21
000
FTUS42 KMLB 270910 AAA
TAFVRB
TAF AMD
KVRB 270910Z 2709/2806 07005KT P6SM VCSH SCT025 BKN050
      TEMPO 2709/2712 3SM SHRA BKN025
     FM271400 08012G18KT P6SM VCSH SCT025 BKN040=

USA.gov is the U.S. government's official web portal to all federal, state and local government web resources and services.